sensor_id;sensor_type;location;lat;lon;timestamp;P1;durP1;ratioP1;P2;durP2;ratioP2
22644;SDS011;11489;50.834;6.752;2022-12-28T00:00:28;4.28;;;1.60;;
22644;SDS011;11489;50.834;6.752;2022-12-28T00:02:57;5.55;;;1.83;;
22644;SDS011;11489;50.834;6.752;2022-12-28T00:05:23;3.85;;;1.50;;
22644;SDS011;11489;50.834;6.752;2022-12-28T00:07:49;3.28;;;1.45;;
22644;SDS011;11489;50.834;6.752;2022-12-28T00:10:14;7.85;;;1.67;;
22644;SDS011;11489;50.834;6.752;2022-12-28T00:12:40;2.97;;;1.67;;
22644;SDS011;11489;50.834;6.752;2022-12-28T00:15:06;4.65;;;1.67;;
22644;SDS011;11489;50.834;6.752;2022-12-28T00:17:31;7.72;;;1.60;;
22644;SDS011;11489;50.834;6.752;2022-12-28T00:19:57;3.60;;;1.58;;
22644;SDS011;11489;50.834;6.752;2022-12-28T00:22:23;2.83;;;1.58;;
22644;SDS011;11489;50.834;6.752;2022-12-28T00:24:51;4.13;;;1.83;;
22644;SDS011;11489;50.834;6.752;2022-12-28T00:27:16;4.32;;;1.52;;
22644;SDS011;11489;50.834;6.752;2022-12-28T00:29:42;5.43;;;1.67;;
22644;SDS011;11489;50.834;6.752;2022-12-28T00:32:07;6.80;;;1.92;;
22644;SDS011;11489;50.834;6.752;2022-12-28T00:34:33;6.25;;;1.85;;
22644;SDS011;11489;50.834;6.752;2022-12-28T00:36:59;4.50;;;1.73;;
22644;SDS011;11489;50.834;6.752;2022-12-28T00:39:25;5.53;;;1.73;;
22644;SDS011;11489;50.834;6.752;2022-12-28T00:41:50;5.82;;;1.88;;
22644;SDS011;11489;50.834;6.752;2022-12-28T00:44:16;6.13;;;1.95;;
22644;SDS011;11489;50.834;6.752;2022-12-28T00:46:41;5.25;;;1.80;;
22644;SDS011;11489;50.834;6.752;2022-12-28T00:49:07;4.60;;;1.60;;
22644;SDS011;11489;50.834;6.752;2022-12-28T00:51:33;4.88;;;1.80;;
22644;SDS011;11489;50.834;6.752;2022-12-28T00:53:59;2.95;;;1.65;;
22644;SDS011;11489;50.834;6.752;2022-12-28T00:56:25;6.35;;;1.60;;
22644;SDS011;11489;50.834;6.752;2022-12-28T00:58:55;5.15;;;1.95;;
22644;SDS011;11489;50.834;6.752;2022-12-28T01:01:22;6.40;;;1.83;;
22644;SDS011;11489;50.834;6.752;2022-12-28T01:03:49;3.70;;;1.95;;
22644;SDS011;11489;50.834;6.752;2022-12-28T01:06:15;5.75;;;1.90;;
22644;SDS011;11489;50.834;6.752;2022-12-28T01:08:42;2.80;;;1.55;;
22644;SDS011;11489;50.834;6.752;2022-12-28T01:11:13;5.93;;;1.58;;
22644;SDS011;11489;50.834;6.752;2022-12-28T01:13:48;4.20;;;1.75;;
22644;SDS011;11489;50.834;6.752;2022-12-28T01:16:16;4.35;;;1.60;;
22644;SDS011;11489;50.834;6.752;2022-12-28T01:18:46;4.90;;;1.50;;
22644;SDS011;11489;50.834;6.752;2022-12-28T01:21:15;3.95;;;1.52;;
22644;SDS011;11489;50.834;6.752;2022-12-28T01:23:44;4.30;;;1.73;;
22644;SDS011;11489;50.834;6.752;2022-12-28T01:26:12;4.93;;;1.80;;
22644;SDS011;11489;50.834;6.752;2022-12-28T01:28:38;5.32;;;1.92;;
22644;SDS011;11489;50.834;6.752;2022-12-28T01:31:08;6.32;;;2.05;;
22644;SDS011;11489;50.834;6.752;2022-12-28T01:33:38;2.28;;;1.55;;
22644;SDS011;11489;50.834;6.752;2022-12-28T01:36:05;6.68;;;2.10;;
22644;SDS011;11489;50.834;6.752;2022-12-28T01:38:37;4.70;;;1.50;;
22644;SDS011;11489;50.834;6.752;2022-12-28T01:41:05;5.13;;;1.65;;
22644;SDS011;11489;50.834;6.752;2022-12-28T01:43:34;3.75;;;1.58;;
22644;SDS011;11489;50.834;6.752;2022-12-28T01:46:15;3.38;;;1.52;;
22644;SDS011;11489;50.834;6.752;2022-12-28T01:48:49;7.38;;;1.63;;
22644;SDS011;11489;50.834;6.752;2022-12-28T01:51:43;4.25;;;1.73;;
22644;SDS011;11489;50.834;6.752;2022-12-28T01:54:38;5.65;;;1.85;;
22644;SDS011;11489;50.834;6.752;2022-12-28T01:57:14;2.80;;;1.48;;
22644;SDS011;11489;50.834;6.752;2022-12-28T01:59:43;3.67;;;1.65;;
22644;SDS011;11489;50.834;6.752;2022-12-28T02:02:13;4.90;;;1.50;;
22644;SDS011;11489;50.834;6.752;2022-12-28T02:04:39;2.10;;;1.48;;
22644;SDS011;11489;50.834;6.752;2022-12-28T02:07:05;4.35;;;1.88;;
22644;SDS011;11489;50.834;6.752;2022-12-28T02:09:40;7.82;;;2.17;;
22644;SDS011;11489;50.834;6.752;2022-12-28T02:12:08;2.97;;;1.73;;
22644;SDS011;11489;50.834;6.752;2022-12-28T02:14:38;3.10;;;1.50;;
22644;SDS011;11489;50.834;6.752;2022-12-28T02:17:04;3.40;;;1.65;;
22644;SDS011;11489;50.834;6.752;2022-12-28T02:19:43;4.32;;;1.63;;
22644;SDS011;11489;50.834;6.752;2022-12-28T02:31:16;3.00;;;1.48;;
22644;SDS011;11489;50.834;6.752;2022-12-28T02:33:49;6.78;;;1.60;;
22644;SDS011;11489;50.834;6.752;2022-12-28T02:36:32;2.45;;;1.50;;
22644;SDS011;11489;50.834;6.752;2022-12-28T02:39:11;3.28;;;1.40;;
22644;SDS011;11489;50.834;6.752;2022-12-28T02:41:42;2.22;;;1.38;;
22644;SDS011;11489;50.834;6.752;2022-12-28T02:44:09;2.75;;;1.45;;
22644;SDS011;11489;50.834;6.752;2022-12-28T02:46:35;2.03;;;1.40;;
22644;SDS011;11489;50.834;6.752;2022-12-28T02:49:21;3.60;;;1.50;;
22644;SDS011;11489;50.834;6.752;2022-12-28T02:52:14;3.00;;;1.27;;
22644;SDS011;11489;50.834;6.752;2022-12-28T03:00:21;4.03;;;1.48;;
22644;SDS011;11489;50.834;6.752;2022-12-28T03:03:08;5.05;;;1.33;;
22644;SDS011;11489;50.834;6.752;2022-12-28T03:06:06;3.00;;;1.40;;
22644;SDS011;11489;50.834;6.752;2022-12-28T03:09:16;3.50;;;1.60;;
22644;SDS011;11489;50.834;6.752;2022-12-28T03:11:53;3.95;;;1.45;;
22644;SDS011;11489;50.834;6.752;2022-12-28T03:14:41;2.55;;;1.40;;
22644;SDS011;11489;50.834;6.752;2022-12-28T03:17:27;4.47;;;1.65;;
22644;SDS011;11489;50.834;6.752;2022-12-28T03:20:22;3.63;;;1.45;;
22644;SDS011;11489;50.834;6.752;2022-12-28T03:23:08;1.98;;;1.42;;
22644;SDS011;11489;50.834;6.752;2022-12-28T03:25:56;2.97;;;1.30;;
22644;SDS011;11489;50.834;6.752;2022-12-28T03:28:44;3.13;;;1.45;;
22644;SDS011;11489;50.834;6.752;2022-12-28T03:31:30;1.98;;;1.35;;
22644;SDS011;11489;50.834;6.752;2022-12-28T03:33:57;3.85;;;1.30;;
22644;SDS011;11489;50.834;6.752;2022-12-28T03:36:45;3.10;;;1.40;;
22644;SDS011;11489;50.834;6.752;2022-12-28T03:42:00;1.83;;;1.20;;
22644;SDS011;11489;50.834;6.752;2022-12-28T03:44:59;4.45;;;1.38;;
22644;SDS011;11489;50.834;6.752;2022-12-28T03:47:32;2.20;;;1.38;;
22644;SDS011;11489;50.834;6.752;2022-12-28T03:50:02;4.38;;;1.48;;
22644;SDS011;11489;50.834;6.752;2022-12-28T03:52:29;2.58;;;1.40;;
22644;SDS011;11489;50.834;6.752;2022-12-28T03:54:56;1.98;;;1.17;;
22644;SDS011;11489;50.834;6.752;2022-12-28T03:57:22;2.45;;;1.30;;
22644;SDS011;11489;50.834;6.752;2022-12-28T03:59:47;3.15;;;1.40;;
22644;SDS011;11489;50.834;6.752;2022-12-28T04:02:13;2.97;;;1.23;;
22644;SDS011;11489;50.834;6.752;2022-12-28T04:04:39;3.65;;;1.55;;
22644;SDS011;11489;50.834;6.752;2022-12-28T04:07:04;3.75;;;1.50;;
22644;SDS011;11489;50.834;6.752;2022-12-28T04:09:30;2.20;;;1.30;;
22644;SDS011;11489;50.834;6.752;2022-12-28T04:11:56;3.00;;;1.40;;
22644;SDS011;11489;50.834;6.752;2022-12-28T04:14:22;2.70;;;1.27;;
22644;SDS011;11489;50.834;6.752;2022-12-28T04:16:48;2.10;;;1.10;;
22644;SDS011;11489;50.834;6.752;2022-12-28T04:19:14;2.47;;;1.20;;
22644;SDS011;11489;50.834;6.752;2022-12-28T04:21:39;2.03;;;1.20;;
22644;SDS011;11489;50.834;6.752;2022-12-28T04:24:05;3.28;;;1.30;;
22644;SDS011;11489;50.834;6.752;2022-12-28T04:26:31;1.77;;;1.15;;
22644;SDS011;11489;50.834;6.752;2022-12-28T04:28:57;2.08;;;1.20;;
22644;SDS011;11489;50.834;6.752;2022-12-28T04:31:26;3.35;;;1.60;;
22644;SDS011;11489;50.834;6.752;2022-12-28T04:33:52;5.05;;;1.60;;
22644;SDS011;11489;50.834;6.752;2022-12-28T04:36:20;2.72;;;1.33;;
22644;SDS011;11489;50.834;6.752;2022-12-28T04:38:46;1.88;;;1.10;;
22644;SDS011;11489;50.834;6.752;2022-12-28T04:41:11;2.88;;;1.52;;
22644;SDS011;11489;50.834;6.752;2022-12-28T04:43:37;2.95;;;1.30;;
22644;SDS011;11489;50.834;6.752;2022-12-28T04:46:09;3.05;;;1.40;;
22644;SDS011;11489;50.834;6.752;2022-12-28T04:48:37;3.40;;;1.10;;
22644;SDS011;11489;50.834;6.752;2022-12-28T04:51:06;3.70;;;1.40;;
22644;SDS011;11489;50.834;6.752;2022-12-28T04:53:37;2.50;;;1.20;;
22644;SDS011;11489;50.834;6.752;2022-12-28T04:56:04;1.83;;;1.10;;
22644;SDS011;11489;50.834;6.752;2022-12-28T04:58:31;1.63;;;1.13;;
22644;SDS011;11489;50.834;6.752;2022-12-28T05:01:10;2.78;;;1.05;;
22644;SDS011;11489;50.834;6.752;2022-12-28T05:03:38;2.17;;;1.13;;
22644;SDS011;11489;50.834;6.752;2022-12-28T05:06:06;2.28;;;1.10;;
22644;SDS011;11489;50.834;6.752;2022-12-28T05:08:35;5.60;;;1.55;;
22644;SDS011;11489;50.834;6.752;2022-12-28T05:11:02;3.10;;;1.05;;
22644;SDS011;11489;50.834;6.752;2022-12-28T05:13:29;1.85;;;0.90;;
22644;SDS011;11489;50.834;6.752;2022-12-28T05:15:59;1.65;;;0.90;;
22644;SDS011;11489;50.834;6.752;2022-12-28T05:18:26;1.63;;;0.90;;
22644;SDS011;11489;50.834;6.752;2022-12-28T05:21:03;1.20;;;0.85;;
22644;SDS011;11489;50.834;6.752;2022-12-28T05:23:30;0.98;;;0.70;;
22644;SDS011;11489;50.834;6.752;2022-12-28T05:25:57;0.90;;;0.80;;
22644;SDS011;11489;50.834;6.752;2022-12-28T05:28:23;1.02;;;0.70;;
22644;SDS011;11489;50.834;6.752;2022-12-28T05:30:50;2.28;;;0.90;;
22644;SDS011;11489;50.834;6.752;2022-12-28T05:33:17;2.30;;;0.70;;
22644;SDS011;11489;50.834;6.752;2022-12-28T05:35:43;1.50;;;0.95;;
22644;SDS011;11489;50.834;6.752;2022-12-28T05:38:09;1.55;;;0.73;;
22644;SDS011;11489;50.834;6.752;2022-12-28T05:40:34;1.80;;;1.00;;
22644;SDS011;11489;50.834;6.752;2022-12-28T05:43:00;1.02;;;0.70;;
22644;SDS011;11489;50.834;6.752;2022-12-28T05:45:26;2.53;;;0.98;;
22644;SDS011;11489;50.834;6.752;2022-12-28T05:47:53;2.25;;;1.00;;
22644;SDS011;11489;50.834;6.752;2022-12-28T05:50:19;1.80;;;1.00;;
22644;SDS011;11489;50.834;6.752;2022-12-28T05:52:45;1.33;;;0.90;;
22644;SDS011;11489;50.834;6.752;2022-12-28T05:55:10;2.03;;;1.10;;
22644;SDS011;11489;50.834;6.752;2022-12-28T05:57:36;3.78;;;1.15;;
22644;SDS011;11489;50.834;6.752;2022-12-28T06:00:03;2.92;;;0.98;;
22644;SDS011;11489;50.834;6.752;2022-12-28T06:02:29;5.07;;;1.10;;
22644;SDS011;11489;50.834;6.752;2022-12-28T06:04:55;1.75;;;1.02;;
22644;SDS011;11489;50.834;6.752;2022-12-28T06:07:21;1.52;;;1.05;;
22644;SDS011;11489;50.834;6.752;2022-12-28T06:09:47;2.80;;;1.10;;
22644;SDS011;11489;50.834;6.752;2022-12-28T06:12:12;3.17;;;1.15;;
22644;SDS011;11489;50.834;6.752;2022-12-28T06:14:38;1.40;;;1.10;;
22644;SDS011;11489;50.834;6.752;2022-12-28T06:17:04;1.98;;;1.13;;
22644;SDS011;11489;50.834;6.752;2022-12-28T06:19:29;1.42;;;0.90;;
22644;SDS011;11489;50.834;6.752;2022-12-28T06:21:55;1.85;;;1.10;;
22644;SDS011;11489;50.834;6.752;2022-12-28T06:24:21;2.35;;;1.10;;
22644;SDS011;11489;50.834;6.752;2022-12-28T06:26:46;1.30;;;1.02;;
22644;SDS011;11489;50.834;6.752;2022-12-28T06:29:12;1.88;;;1.02;;
22644;SDS011;11489;50.834;6.752;2022-12-28T06:31:39;3.10;;;1.30;;
22644;SDS011;11489;50.834;6.752;2022-12-28T06:34:08;1.80;;;1.30;;
22644;SDS011;11489;50.834;6.752;2022-12-28T06:36:41;1.55;;;1.08;;
22644;SDS011;11489;50.834;6.752;2022-12-28T06:39:10;3.42;;;1.10;;
22644;SDS011;11489;50.834;6.752;2022-12-28T06:41:37;2.78;;;1.10;;
22644;SDS011;11489;50.834;6.752;2022-12-28T06:44:06;2.17;;;1.20;;
22644;SDS011;11489;50.834;6.752;2022-12-28T06:46:34;2.25;;;1.17;;
22644;SDS011;11489;50.834;6.752;2022-12-28T06:49:00;2.95;;;1.40;;
22644;SDS011;11489;50.834;6.752;2022-12-28T06:51:27;5.78;;;1.38;;
22644;SDS011;11489;50.834;6.752;2022-12-28T06:53:54;1.73;;;1.15;;
22644;SDS011;11489;50.834;6.752;2022-12-28T06:56:24;2.85;;;1.10;;
22644;SDS011;11489;50.834;6.752;2022-12-28T06:58:52;1.83;;;1.05;;
22644;SDS011;11489;50.834;6.752;2022-12-28T07:01:22;2.25;;;1.10;;
22644;SDS011;11489;50.834;6.752;2022-12-28T07:03:51;1.38;;;1.13;;
22644;SDS011;11489;50.834;6.752;2022-12-28T07:06:18;1.48;;;0.95;;
22644;SDS011;11489;50.834;6.752;2022-12-28T07:08:46;3.13;;;1.00;;
22644;SDS011;11489;50.834;6.752;2022-12-28T07:11:14;3.15;;;1.10;;
22644;SDS011;11489;50.834;6.752;2022-12-28T07:13:42;1.75;;;0.80;;
22644;SDS011;11489;50.834;6.752;2022-12-28T07:16:10;3.55;;;1.20;;
22644;SDS011;11489;50.834;6.752;2022-12-28T07:18:38;3.80;;;1.65;;
22644;SDS011;11489;50.834;6.752;2022-12-28T07:21:04;2.17;;;1.35;;
22644;SDS011;11489;50.834;6.752;2022-12-28T07:23:32;3.40;;;1.25;;
22644;SDS011;11489;50.834;6.752;2022-12-28T07:26:12;2.15;;;1.20;;
22644;SDS011;11489;50.834;6.752;2022-12-28T07:28:40;1.77;;;1.30;;
22644;SDS011;11489;50.834;6.752;2022-12-28T07:31:08;1.63;;;1.00;;
22644;SDS011;11489;50.834;6.752;2022-12-28T07:33:39;1.90;;;1.00;;
22644;SDS011;11489;50.834;6.752;2022-12-28T07:36:05;1.73;;;1.00;;
22644;SDS011;11489;50.834;6.752;2022-12-28T07:38:32;1.50;;;1.00;;
22644;SDS011;11489;50.834;6.752;2022-12-28T07:43:28;1.58;;;0.75;;
22644;SDS011;11489;50.834;6.752;2022-12-28T07:45:58;2.25;;;0.90;;
22644;SDS011;11489;50.834;6.752;2022-12-28T07:48:24;1.90;;;0.85;;
22644;SDS011;11489;50.834;6.752;2022-12-28T07:50:50;1.98;;;1.38;;
22644;SDS011;11489;50.834;6.752;2022-12-28T07:53:16;2.55;;;0.90;;
22644;SDS011;11489;50.834;6.752;2022-12-28T07:55:41;1.10;;;0.70;;
22644;SDS011;11489;50.834;6.752;2022-12-28T07:58:07;1.05;;;0.70;;
22644;SDS011;11489;50.834;6.752;2022-12-28T08:00:33;2.85;;;0.75;;
22644;SDS011;11489;50.834;6.752;2022-12-28T08:02:58;1.10;;;0.70;;
22644;SDS011;11489;50.834;6.752;2022-12-28T08:05:24;1.45;;;0.70;;
22644;SDS011;11489;50.834;6.752;2022-12-28T08:07:50;1.55;;;0.80;;
22644;SDS011;11489;50.834;6.752;2022-12-28T08:10:16;0.75;;;0.60;;
22644;SDS011;11489;50.834;6.752;2022-12-28T08:12:42;1.42;;;0.65;;
22644;SDS011;11489;50.834;6.752;2022-12-28T08:15:07;1.27;;;0.70;;
22644;SDS011;11489;50.834;6.752;2022-12-28T08:17:33;1.27;;;0.68;;
22644;SDS011;11489;50.834;6.752;2022-12-28T08:19:59;2.67;;;0.80;;
22644;SDS011;11489;50.834;6.752;2022-12-28T08:22:24;1.38;;;0.80;;
22644;SDS011;11489;50.834;6.752;2022-12-28T08:24:50;3.25;;;0.70;;
22644;SDS011;11489;50.834;6.752;2022-12-28T08:27:16;0.73;;;0.63;;
22644;SDS011;11489;50.834;6.752;2022-12-28T08:29:41;1.10;;;0.70;;
22644;SDS011;11489;50.834;6.752;2022-12-28T08:32:07;1.20;;;0.82;;
22644;SDS011;11489;50.834;6.752;2022-12-28T08:34:32;2.90;;;1.60;;
22644;SDS011;11489;50.834;6.752;2022-12-28T08:36:58;1.50;;;1.00;;
22644;SDS011;11489;50.834;6.752;2022-12-28T08:39:24;1.15;;;0.70;;
22644;SDS011;11489;50.834;6.752;2022-12-28T08:41:49;2.80;;;0.77;;
22644;SDS011;11489;50.834;6.752;2022-12-28T08:44:15;2.50;;;0.88;;
22644;SDS011;11489;50.834;6.752;2022-12-28T08:46:41;2.47;;;0.80;;
22644;SDS011;11489;50.834;6.752;2022-12-28T08:49:06;2.75;;;1.23;;
22644;SDS011;11489;50.834;6.752;2022-12-28T08:51:33;1.23;;;0.82;;
22644;SDS011;11489;50.834;6.752;2022-12-28T08:54:01;1.35;;;0.70;;
22644;SDS011;11489;50.834;6.752;2022-12-28T08:56:29;0.90;;;0.70;;
22644;SDS011;11489;50.834;6.752;2022-12-28T08:58:57;1.30;;;0.70;;
22644;SDS011;11489;50.834;6.752;2022-12-28T09:01:27;1.35;;;0.70;;
22644;SDS011;11489;50.834;6.752;2022-12-28T09:03:54;1.98;;;0.70;;
22644;SDS011;11489;50.834;6.752;2022-12-28T09:06:26;0.55;;;0.50;;
22644;SDS011;11489;50.834;6.752;2022-12-28T09:08:57;1.65;;;0.60;;
22644;SDS011;11489;50.834;6.752;2022-12-28T09:11:23;1.85;;;0.95;;
22644;SDS011;11489;50.834;6.752;2022-12-28T09:13:49;0.98;;;0.60;;
22644;SDS011;11489;50.834;6.752;2022-12-28T09:16:16;0.98;;;0.70;;
22644;SDS011;11489;50.834;6.752;2022-12-28T09:18:44;1.15;;;0.70;;
22644;SDS011;11489;50.834;6.752;2022-12-28T09:21:11;0.82;;;0.60;;
22644;SDS011;11489;50.834;6.752;2022-12-28T09:23:38;1.08;;;0.57;;
22644;SDS011;11489;50.834;6.752;2022-12-28T09:26:06;0.55;;;0.50;;
22644;SDS011;11489;50.834;6.752;2022-12-28T09:28:34;0.70;;;0.70;;
22644;SDS011;11489;50.834;6.752;2022-12-28T09:31:03;2.75;;;0.70;;
22644;SDS011;11489;50.834;6.752;2022-12-28T09:33:32;1.23;;;0.70;;
22644;SDS011;11489;50.834;6.752;2022-12-28T09:36:18;1.40;;;0.75;;
22644;SDS011;11489;50.834;6.752;2022-12-28T09:38:44;1.00;;;0.55;;
22644;SDS011;11489;50.834;6.752;2022-12-28T09:46:49;2.72;;;1.80;;
22644;SDS011;11489;50.834;6.752;2022-12-28T09:49:24;3.05;;;1.67;;
22644;SDS011;11489;50.834;6.752;2022-12-28T09:51:59;2.58;;;1.25;;
22644;SDS011;11489;50.834;6.752;2022-12-28T09:54:34;0.70;;;0.70;;
22644;SDS011;11489;50.834;6.752;2022-12-28T09:57:00;1.02;;;0.80;;
22644;SDS011;11489;50.834;6.752;2022-12-28T09:59:26;1.23;;;0.80;;
22644;SDS011;11489;50.834;6.752;2022-12-28T10:01:59;1.35;;;0.73;;
22644;SDS011;11489;50.834;6.752;2022-12-28T10:04:27;1.95;;;0.95;;
22644;SDS011;11489;50.834;6.752;2022-12-28T10:06:54;1.13;;;0.90;;
22644;SDS011;11489;50.834;6.752;2022-12-28T10:09:25;1.20;;;0.77;;
22644;SDS011;11489;50.834;6.752;2022-12-28T10:11:53;1.40;;;0.73;;
22644;SDS011;11489;50.834;6.752;2022-12-28T10:14:26;1.27;;;0.63;;
22644;SDS011;11489;50.834;6.752;2022-12-28T10:16:58;1.38;;;0.80;;
22644;SDS011;11489;50.834;6.752;2022-12-28T10:19:25;0.93;;;0.82;;
22644;SDS011;11489;50.834;6.752;2022-12-28T10:22:03;1.20;;;0.90;;
22644;SDS011;11489;50.834;6.752;2022-12-28T10:24:30;3.42;;;0.90;;
22644;SDS011;11489;50.834;6.752;2022-12-28T10:26:57;2.90;;;1.15;;
22644;SDS011;11489;50.834;6.752;2022-12-28T10:29:25;2.22;;;0.90;;
22644;SDS011;11489;50.834;6.752;2022-12-28T10:31:58;2.40;;;0.98;;
22644;SDS011;11489;50.834;6.752;2022-12-28T10:34:27;2.50;;;0.88;;
22644;SDS011;11489;50.834;6.752;2022-12-28T10:36:55;2.53;;;0.90;;
22644;SDS011;11489;50.834;6.752;2022-12-28T10:39:28;1.85;;;0.77;;
22644;SDS011;11489;50.834;6.752;2022-12-28T10:41:55;1.98;;;0.90;;
22644;SDS011;11489;50.834;6.752;2022-12-28T10:44:28;1.73;;;0.95;;
22644;SDS011;11489;50.834;6.752;2022-12-28T10:46:57;0.90;;;0.68;;
22644;SDS011;11489;50.834;6.752;2022-12-28T10:49:25;1.45;;;0.93;;
22644;SDS011;11489;50.834;6.752;2022-12-28T10:52:37;1.15;;;0.80;;
22644;SDS011;11489;50.834;6.752;2022-12-28T10:54:44;1.13;;;0.80;;
22644;SDS011;11489;50.834;6.752;2022-12-28T10:57:17;2.47;;;0.90;;
22644;SDS011;11489;50.834;6.752;2022-12-28T10:59:44;1.65;;;0.85;;
22644;SDS011;11489;50.834;6.752;2022-12-28T11:04:52;2.05;;;1.10;;
22644;SDS011;11489;50.834;6.752;2022-12-28T11:07:30;2.33;;;1.05;;
22644;SDS011;11489;50.834;6.752;2022-12-28T11:12:42;2.03;;;1.38;;
22644;SDS011;11489;50.834;6.752;2022-12-28T11:15:13;2.80;;;1.20;;
22644;SDS011;11489;50.834;6.752;2022-12-28T11:17:41;3.35;;;1.25;;
22644;SDS011;11489;50.834;6.752;2022-12-28T11:20:18;3.92;;;1.13;;
22644;SDS011;11489;50.834;6.752;2022-12-28T11:22:48;2.58;;;1.13;;
22644;SDS011;11489;50.834;6.752;2022-12-28T11:25:15;1.95;;;1.55;;
22644;SDS011;11489;50.834;6.752;2022-12-28T11:27:43;3.03;;;1.73;;
22644;SDS011;11489;50.834;6.752;2022-12-28T11:30:14;3.60;;;1.50;;
22644;SDS011;11489;50.834;6.752;2022-12-28T11:32:43;6.85;;;2.08;;
22644;SDS011;11489;50.834;6.752;2022-12-28T11:35:15;6.85;;;2.40;;
22644;SDS011;11489;50.834;6.752;2022-12-28T11:37:54;4.28;;;2.15;;
22644;SDS011;11489;50.834;6.752;2022-12-28T11:45:53;3.92;;;1.40;;
22644;SDS011;11489;50.834;6.752;2022-12-28T11:48:44;6.28;;;1.50;;
22644;SDS011;11489;50.834;6.752;2022-12-28T11:51:19;2.67;;;1.23;;
22644;SDS011;11489;50.834;6.752;2022-12-28T11:53:51;3.53;;;1.10;;
22644;SDS011;11489;50.834;6.752;2022-12-28T11:56:18;4.22;;;1.02;;
22644;SDS011;11489;50.834;6.752;2022-12-28T12:11:53;2.65;;;1.00;;
22644;SDS011;11489;50.834;6.752;2022-12-28T12:14:22;4.38;;;1.30;;
22644;SDS011;11489;50.834;6.752;2022-12-28T12:17:02;1.90;;;0.82;;
22644;SDS011;11489;50.834;6.752;2022-12-28T12:19:42;2.00;;;0.95;;
22644;SDS011;11489;50.834;6.752;2022-12-28T12:22:14;2.15;;;1.00;;
22644;SDS011;11489;50.834;6.752;2022-12-28T12:27:49;1.17;;;0.70;;
22644;SDS011;11489;50.834;6.752;2022-12-28T12:30:22;1.38;;;0.70;;
22644;SDS011;11489;50.834;6.752;2022-12-28T12:35:29;2.35;;;0.88;;
22644;SDS011;11489;50.834;6.752;2022-12-28T12:38:04;2.13;;;0.65;;
22644;SDS011;11489;50.834;6.752;2022-12-28T12:43:41;3.63;;;0.90;;
22644;SDS011;11489;50.834;6.752;2022-12-28T12:46:27;1.85;;;0.82;;
22644;SDS011;11489;50.834;6.752;2022-12-28T12:51:27;1.40;;;0.98;;
22644;SDS011;11489;50.834;6.752;2022-12-28T12:54:02;1.70;;;0.90;;
22644;SDS011;11489;50.834;6.752;2022-12-28T12:59:44;2.45;;;1.08;;
22644;SDS011;11489;50.834;6.752;2022-12-28T13:05:06;1.77;;;0.70;;
22644;SDS011;11489;50.834;6.752;2022-12-28T13:07:38;1.75;;;1.20;;
22644;SDS011;11489;50.834;6.752;2022-12-28T13:10:04;1.45;;;0.90;;
22644;SDS011;11489;50.834;6.752;2022-12-28T13:12:31;1.75;;;0.90;;
22644;SDS011;11489;50.834;6.752;2022-12-28T13:14:58;2.38;;;1.10;;
22644;SDS011;11489;50.834;6.752;2022-12-28T13:17:25;1.98;;;0.90;;
22644;SDS011;11489;50.834;6.752;2022-12-28T13:20:08;2.85;;;1.08;;
22644;SDS011;11489;50.834;6.752;2022-12-28T13:22:42;1.73;;;1.15;;
22644;SDS011;11489;50.834;6.752;2022-12-28T13:27:48;1.70;;;1.05;;
22644;SDS011;11489;50.834;6.752;2022-12-28T13:30:17;3.15;;;1.10;;
22644;SDS011;11489;50.834;6.752;2022-12-28T13:32:49;1.88;;;1.10;;
22644;SDS011;11489;50.834;6.752;2022-12-28T13:35:16;1.48;;;1.00;;
22644;SDS011;11489;50.834;6.752;2022-12-28T13:37:57;4.43;;;2.40;;
22644;SDS011;11489;50.834;6.752;2022-12-28T13:40:49;10.10;;;4.75;;
22644;SDS011;11489;50.834;6.752;2022-12-28T13:45:58;3.97;;;1.90;;
22644;SDS011;11489;50.834;6.752;2022-12-28T13:48:33;3.95;;;2.50;;
22644;SDS011;11489;50.834;6.752;2022-12-28T13:51:01;6.03;;;2.30;;
22644;SDS011;11489;50.834;6.752;2022-12-28T13:53:28;3.85;;;1.95;;
22644;SDS011;11489;50.834;6.752;2022-12-28T13:55:57;4.03;;;2.42;;
22644;SDS011;11489;50.834;6.752;2022-12-28T13:58:31;3.20;;;1.80;;
22644;SDS011;11489;50.834;6.752;2022-12-28T14:01:00;3.60;;;1.95;;
22644;SDS011;11489;50.834;6.752;2022-12-28T14:03:29;6.10;;;2.47;;
22644;SDS011;11489;50.834;6.752;2022-12-28T14:05:57;3.75;;;2.20;;
22644;SDS011;11489;50.834;6.752;2022-12-28T14:08:26;4.32;;;1.70;;
22644;SDS011;11489;50.834;6.752;2022-12-28T14:10:53;4.72;;;2.25;;
22644;SDS011;11489;50.834;6.752;2022-12-28T14:13:20;2.67;;;1.67;;
22644;SDS011;11489;50.834;6.752;2022-12-28T14:15:46;3.30;;;1.63;;
22644;SDS011;11489;50.834;6.752;2022-12-28T14:18:13;4.63;;;1.52;;
22644;SDS011;11489;50.834;6.752;2022-12-28T14:20:44;2.97;;;1.73;;
22644;SDS011;11489;50.834;6.752;2022-12-28T14:23:21;4.55;;;1.42;;
22644;SDS011;11489;50.834;6.752;2022-12-28T14:25:50;3.53;;;1.65;;
22644;SDS011;11489;50.834;6.752;2022-12-28T14:28:21;3.53;;;1.80;;
22644;SDS011;11489;50.834;6.752;2022-12-28T14:30:54;2.53;;;1.60;;
22644;SDS011;11489;50.834;6.752;2022-12-28T14:33:21;4.13;;;1.60;;
22644;SDS011;11489;50.834;6.752;2022-12-28T14:35:55;4.03;;;1.40;;
22644;SDS011;11489;50.834;6.752;2022-12-28T14:38:25;6.63;;;1.30;;
22644;SDS011;11489;50.834;6.752;2022-12-28T14:40:57;4.38;;;1.55;;
22644;SDS011;11489;50.834;6.752;2022-12-28T14:43:28;3.47;;;1.40;;
22644;SDS011;11489;50.834;6.752;2022-12-28T14:45:54;2.55;;;1.38;;
22644;SDS011;11489;50.834;6.752;2022-12-28T14:50:59;2.75;;;1.35;;
22644;SDS011;11489;50.834;6.752;2022-12-28T14:53:26;1.67;;;1.20;;
22644;SDS011;11489;50.834;6.752;2022-12-28T14:55:54;1.63;;;1.15;;
22644;SDS011;11489;50.834;6.752;2022-12-28T14:58:24;2.50;;;1.23;;
22644;SDS011;11489;50.834;6.752;2022-12-28T15:01:00;3.55;;;1.92;;
22644;SDS011;11489;50.834;6.752;2022-12-28T15:03:46;2.83;;;1.75;;
22644;SDS011;11489;50.834;6.752;2022-12-28T15:06:16;1.35;;;1.10;;
22644;SDS011;11489;50.834;6.752;2022-12-28T15:08:50;2.47;;;1.33;;
22644;SDS011;11489;50.834;6.752;2022-12-28T15:11:19;3.00;;;1.20;;
22644;SDS011;11489;50.834;6.752;2022-12-28T15:13:46;2.40;;;1.10;;
22644;SDS011;11489;50.834;6.752;2022-12-28T15:16:13;2.55;;;1.50;;
22644;SDS011;11489;50.834;6.752;2022-12-28T15:18:40;5.90;;;1.30;;
22644;SDS011;11489;50.834;6.752;2022-12-28T15:21:12;3.13;;;1.25;;
22644;SDS011;11489;50.834;6.752;2022-12-28T15:23:39;1.95;;;1.30;;
22644;SDS011;11489;50.834;6.752;2022-12-28T15:26:09;2.42;;;1.38;;
22644;SDS011;11489;50.834;6.752;2022-12-28T15:28:36;5.85;;;1.40;;
22644;SDS011;11489;50.834;6.752;2022-12-28T15:31:03;1.15;;;1.02;;
22644;SDS011;11489;50.834;6.752;2022-12-28T15:33:30;1.73;;;1.08;;
22644;SDS011;11489;50.834;6.752;2022-12-28T15:36:03;2.15;;;1.30;;
22644;SDS011;11489;50.834;6.752;2022-12-28T15:38:30;2.03;;;1.10;;
22644;SDS011;11489;50.834;6.752;2022-12-28T15:40:56;1.45;;;1.00;;
22644;SDS011;11489;50.834;6.752;2022-12-28T15:43:22;1.88;;;0.95;;
22644;SDS011;11489;50.834;6.752;2022-12-28T15:45:54;3.65;;;1.20;;
22644;SDS011;11489;50.834;6.752;2022-12-28T15:48:20;3.38;;;1.23;;
22644;SDS011;11489;50.834;6.752;2022-12-28T15:50:46;3.13;;;1.40;;
22644;SDS011;11489;50.834;6.752;2022-12-28T15:53:12;2.22;;;1.30;;
22644;SDS011;11489;50.834;6.752;2022-12-28T15:55:37;1.52;;;1.00;;
22644;SDS011;11489;50.834;6.752;2022-12-28T15:58:03;2.17;;;1.10;;
22644;SDS011;11489;50.834;6.752;2022-12-28T16:00:28;3.35;;;1.20;;
22644;SDS011;11489;50.834;6.752;2022-12-28T16:02:54;2.30;;;1.15;;
22644;SDS011;11489;50.834;6.752;2022-12-28T16:05:20;1.60;;;0.90;;
22644;SDS011;11489;50.834;6.752;2022-12-28T16:07:46;2.15;;;1.15;;
22644;SDS011;11489;50.834;6.752;2022-12-28T16:10:12;1.80;;;1.20;;
22644;SDS011;11489;50.834;6.752;2022-12-28T16:12:38;1.92;;;1.20;;
22644;SDS011;11489;50.834;6.752;2022-12-28T16:15:04;2.70;;;0.95;;
22644;SDS011;11489;50.834;6.752;2022-12-28T16:17:32;2.25;;;1.20;;